createdAt,value
2018-05-03T00:01:38.823Z,6.43
2018-05-03T00:04:06.356Z,6.60
2018-05-03T00:06:33.874Z,6.73
2018-05-03T00:09:01.557Z,6.83
2018-05-03T00:11:29.135Z,5.87
2018-05-03T00:13:57.910Z,6.50
2018-05-03T00:16:25.469Z,6.60
2018-05-03T00:18:53.668Z,6.93
2018-05-03T00:21:21.417Z,6.90
2018-05-03T00:23:48.930Z,7.37
2018-05-03T00:26:16.526Z,8.20
2018-05-03T00:28:44.353Z,12.93
2018-05-03T00:31:11.978Z,8.30
2018-05-03T00:33:39.506Z,8.53
2018-05-03T00:36:07.053Z,7.13
2018-05-03T00:38:34.593Z,8.83
2018-05-03T00:41:02.134Z,9.90
2018-05-03T00:43:29.664Z,9.43
2018-05-03T00:45:57.363Z,8.90
2018-05-03T00:48:24.889Z,6.30
2018-05-03T00:50:52.514Z,5.77
2018-05-03T00:53:20.602Z,6.30
2018-05-03T00:55:48.140Z,6.87
2018-05-03T00:58:15.664Z,6.97
2018-05-03T01:00:44.016Z,7.80
2018-05-03T01:03:11.771Z,6.90
2018-05-03T01:05:39.662Z,9.97
2018-05-03T01:08:07.310Z,7.07
2018-05-03T01:10:34.922Z,6.43
2018-05-03T01:13:02.604Z,6.20
2018-05-03T01:15:30.118Z,7.17
2018-05-03T01:17:57.622Z,6.93
2018-05-03T01:20:25.736Z,6.37
2018-05-03T01:22:53.244Z,6.43
2018-05-03T01:25:20.753Z,7.37
2018-05-03T01:27:48.284Z,6.80
2018-05-03T01:30:15.852Z,6.50
2018-05-03T01:32:43.448Z,5.70
2018-05-03T01:35:31.562Z,6.20
2018-05-03T01:37:59.054Z,5.53
2018-05-03T01:40:27.366Z,5.47
2018-05-03T01:42:54.889Z,5.77
2018-05-03T01:45:22.405Z,5.93
2018-05-03T01:47:49.929Z,6.10
2018-05-03T01:50:17.449Z,5.77
2018-05-03T01:52:44.962Z,5.90
2018-05-03T01:55:12.553Z,6.07
2018-05-03T01:57:40.093Z,8.00
2018-05-03T02:00:07.880Z,7.23
2018-05-03T02:02:35.925Z,6.47
2018-05-03T02:05:03.427Z,7.63
2018-05-03T02:07:31.713Z,7.60
2018-05-03T02:09:59.207Z,6.67
2018-05-03T02:12:27.763Z,6.47
2018-05-03T02:14:56.041Z,7.87
2018-05-03T02:17:24.345Z,6.67
2018-05-03T02:19:52.773Z,7.40
2018-05-03T02:22:20.283Z,7.60
2018-05-03T02:24:48.053Z,7.63
2018-05-03T02:27:15.567Z,7.37
2018-05-03T02:29:43.103Z,7.47
2018-05-03T02:32:10.628Z,6.73
2018-05-03T02:34:38.227Z,6.57
2018-05-03T02:37:05.770Z,7.10
2018-05-03T02:39:33.266Z,6.90
2018-05-03T02:42:00.823Z,7.33
2018-05-03T02:44:28.342Z,7.20
2018-05-03T02:46:55.957Z,9.23
2018-05-03T02:49:23.472Z,9.20
2018-05-03T02:51:50.965Z,7.67
2018-05-03T02:54:18.878Z,7.13
2018-05-03T02:56:46.386Z,6.90
2018-05-03T02:59:25.544Z,7.17
2018-05-03T03:01:59.352Z,9.83
2018-05-03T03:04:45.174Z,8.47
2018-05-03T03:10:55.733Z,7.77
2018-05-03T03:13:40.920Z,7.67
2018-05-03T03:16:26.353Z,7.60
2018-05-03T03:19:11.624Z,7.37
2018-05-03T03:22:10.826Z,7.20
2018-05-03T03:25:02.007Z,7.60
2018-05-03T03:27:47.036Z,8.37
2018-05-03T03:30:32.013Z,8.70
2018-05-03T03:33:11.304Z,14.20
2018-05-03T03:35:59.485Z,10.43
2018-05-03T03:38:38.748Z,7.73
2018-05-03T03:41:18.128Z,7.50
2018-05-03T03:43:57.668Z,8.10
2018-05-03T03:46:25.504Z,8.13
2018-05-03T03:48:53.087Z,7.70
2018-05-03T03:51:21.617Z,8.50
2018-05-03T03:53:49.132Z,8.63
2018-05-03T03:56:16.893Z,8.90
2018-05-03T03:58:44.526Z,7.90
2018-05-03T04:01:12.880Z,7.77
2018-05-03T04:03:40.769Z,7.50
2018-05-03T04:06:08.326Z,8.20
2018-05-03T04:08:35.888Z,7.67
2018-05-03T04:11:03.422Z,8.53
2018-05-03T04:13:30.974Z,8.20
2018-05-03T04:15:59.266Z,8.63
2018-05-03T04:18:39.064Z,8.23
2018-05-03T04:21:29.324Z,9.70
2018-05-03T04:24:09.409Z,8.37
2018-05-03T04:26:36.992Z,9.03
2018-05-03T04:29:04.649Z,8.70
2018-05-03T04:31:32.945Z,8.40
2018-05-03T04:34:01.475Z,8.13
2018-05-03T04:36:28.993Z,7.77
2018-05-03T04:38:56.536Z,7.20
2018-05-03T04:41:24.069Z,7.40
2018-05-03T04:43:51.609Z,7.20
2018-05-03T04:46:20.091Z,7.50
2018-05-03T04:48:48.988Z,8.07
2018-05-03T04:51:16.862Z,7.50
2018-05-03T04:53:44.403Z,8.57
2018-05-03T04:56:11.997Z,7.60
2018-05-03T04:58:39.547Z,8.70
2018-05-03T05:01:07.341Z,9.00
2018-05-03T05:03:34.867Z,8.20
2018-05-03T05:06:02.769Z,7.97
2018-05-03T05:08:30.282Z,8.00
2018-05-03T05:11:01.254Z,8.00
2018-05-03T05:13:29.052Z,7.93
2018-05-03T05:15:57.322Z,7.80
2018-05-03T05:18:25.686Z,8.07
2018-05-03T05:20:54.045Z,8.07
2018-05-03T05:23:21.550Z,8.83
2018-05-03T05:25:49.112Z,7.77
2018-05-03T05:28:16.816Z,7.37
2018-05-03T05:30:44.719Z,7.27
2018-05-03T05:33:12.259Z,7.17
2018-05-03T05:35:39.747Z,6.83
2018-05-03T05:38:07.322Z,6.90
2018-05-03T05:40:36.067Z,7.23
2018-05-03T05:43:03.837Z,6.90
2018-05-03T05:45:32.247Z,7.27
2018-05-03T05:47:59.766Z,6.87
2018-05-03T05:50:27.326Z,7.00
2018-05-03T05:52:54.931Z,6.60
2018-05-03T05:55:22.460Z,7.00
2018-05-03T05:57:50.253Z,6.37
2018-05-03T06:00:17.831Z,6.30
2018-05-03T06:02:45.492Z,7.37
2018-05-03T06:05:13.161Z,7.60
2018-05-03T06:07:40.697Z,7.63
2018-05-03T06:10:08.200Z,7.00
2018-05-03T06:12:35.760Z,6.43
2018-05-03T06:15:03.410Z,6.80
2018-05-03T06:17:30.991Z,6.63
2018-05-03T06:19:58.544Z,6.83
2018-05-03T06:22:26.169Z,8.40
2018-05-03T06:24:53.783Z,6.10
2018-05-03T06:27:21.328Z,7.70
2018-05-03T06:29:48.876Z,10.27
2018-05-03T06:32:16.446Z,8.17
2018-05-03T06:34:44.314Z,18.00
2018-05-03T06:37:11.844Z,7.93
2018-05-03T06:39:39.368Z,7.00
2018-05-03T06:42:06.882Z,7.43
2018-05-03T06:44:34.629Z,7.00
2018-05-03T06:47:02.178Z,9.90
2018-05-03T06:49:30.517Z,7.77
2018-05-03T06:51:58.049Z,7.07
2018-05-03T06:54:25.616Z,7.40
2018-05-03T06:56:53.144Z,7.33
2018-05-03T06:59:20.731Z,8.20
2018-05-03T07:01:50.047Z,7.37
2018-05-03T07:04:17.626Z,6.43
2018-05-03T07:06:45.328Z,6.80
2018-05-03T07:09:12.848Z,8.73
2018-05-03T07:11:40.445Z,7.63
2018-05-03T07:14:08.316Z,8.40
2018-05-03T07:16:37.346Z,9.03
2018-05-03T07:19:04.906Z,7.30
2018-05-03T07:21:32.608Z,9.70
2018-05-03T07:24:00.529Z,8.97
2018-05-03T07:26:28.085Z,7.03
2018-05-03T07:28:55.654Z,11.97
2018-05-03T07:31:23.266Z,8.20
2018-05-03T07:33:51.604Z,7.93
2018-05-03T07:36:19.155Z,8.23
2018-05-03T07:38:46.855Z,7.37
2018-05-03T07:41:15.289Z,9.10
2018-05-03T07:43:43.011Z,7.73
2018-05-03T07:46:10.784Z,8.07
2018-05-03T07:48:38.394Z,6.80
2018-05-03T07:51:05.935Z,9.00
2018-05-03T07:53:33.581Z,8.60
2018-05-03T07:56:01.777Z,8.33
2018-05-03T07:58:29.394Z,14.37
2018-05-03T08:00:56.948Z,12.87
2018-05-03T08:03:25.240Z,8.57
2018-05-03T08:05:53.582Z,7.53
2018-05-03T08:08:21.133Z,7.07
2018-05-03T08:10:48.817Z,8.07
2018-05-03T08:13:16.737Z,8.97
2018-05-03T08:15:44.294Z,6.93
2018-05-03T08:18:12.390Z,7.30
2018-05-03T08:20:39.932Z,9.07
2018-05-03T08:23:07.598Z,7.93
2018-05-03T08:25:35.827Z,5.90
2018-05-03T08:28:03.354Z,7.70
2018-05-03T08:30:30.948Z,6.43
2018-05-03T08:32:58.523Z,7.53
2018-05-03T08:35:26.114Z,6.50
2018-05-03T08:37:53.677Z,6.67
2018-05-03T08:40:21.739Z,6.70
2018-05-03T08:42:49.487Z,8.30
2018-05-03T08:45:17.199Z,6.00
2018-05-03T08:47:45.444Z,7.77
2018-05-03T08:50:12.994Z,11.03
2018-05-03T08:52:40.872Z,11.20
2018-05-03T08:55:08.542Z,6.40
2018-05-03T08:57:36.100Z,8.03
2018-05-03T09:00:03.852Z,7.80
2018-05-03T09:02:31.448Z,7.37
2018-05-03T09:04:59.180Z,7.20
2018-05-03T09:07:26.934Z,8.23
2018-05-03T09:09:55.236Z,7.03
2018-05-03T09:12:22.902Z,7.30
2018-05-03T09:14:51.679Z,11.33
2018-05-03T09:17:19.406Z,7.10
2018-05-03T09:19:47.113Z,8.37
2018-05-03T09:22:14.689Z,6.77
2018-05-03T09:24:43.125Z,7.33
2018-05-03T09:27:10.705Z,6.43
2018-05-03T09:29:38.998Z,10.27
2018-05-03T09:32:06.557Z,7.77
2018-05-03T09:34:34.118Z,8.13
2018-05-03T09:37:01.696Z,6.80
2018-05-03T09:39:29.302Z,6.53
2018-05-03T09:41:56.840Z,6.43
2018-05-03T09:44:24.415Z,7.60
2018-05-03T09:46:52.002Z,7.00
2018-05-03T09:49:19.594Z,7.87
2018-05-03T09:51:47.407Z,7.43
2018-05-03T09:54:15.715Z,7.53
2018-05-03T09:56:43.266Z,10.73
2018-05-03T09:59:10.895Z,7.90
2018-05-03T10:01:38.463Z,6.17
2018-05-03T10:04:06.946Z,7.93
2018-05-03T10:06:34.463Z,7.60
2018-05-03T10:09:02.005Z,6.80
2018-05-03T10:11:29.869Z,7.57
2018-05-03T10:13:57.647Z,7.13
2018-05-03T10:16:25.213Z,12.97
2018-05-03T10:18:52.771Z,7.03
2018-05-03T10:21:20.331Z,8.03
2018-05-03T10:23:47.920Z,6.13
2018-05-03T10:26:16.515Z,8.20
2018-05-03T10:28:44.793Z,6.87
2018-05-03T10:31:12.522Z,7.17
2018-05-03T10:33:40.866Z,8.20
2018-05-03T10:36:08.549Z,8.70
2018-05-03T10:38:35.914Z,7.57
2018-05-03T10:41:03.476Z,9.87
2018-05-03T10:43:31.023Z,6.53
2018-05-03T10:45:58.590Z,6.70
2018-05-03T10:48:26.099Z,6.13
2018-05-03T10:50:54.409Z,7.20
2018-05-03T10:53:22.169Z,7.23
2018-05-03T10:55:49.810Z,6.90
2018-05-03T10:58:17.369Z,7.23
2018-05-03T11:00:45.071Z,8.23
2018-05-03T11:03:12.592Z,8.30
2018-05-03T11:05:40.148Z,8.13
2018-05-03T11:08:07.838Z,8.70
2018-05-03T11:10:35.473Z,9.33
2018-05-03T11:13:03.062Z,8.77
2018-05-03T11:15:30.644Z,8.30
2018-05-03T11:17:58.462Z,10.77
2018-05-03T11:20:26.187Z,12.23
2018-05-03T11:22:53.845Z,8.80
2018-05-03T11:25:21.359Z,8.00
2018-05-03T11:27:48.927Z,8.13
2018-05-03T11:30:16.446Z,8.73
2018-05-03T11:32:44.807Z,10.00
2018-05-03T11:35:12.532Z,11.07
2018-05-03T11:37:40.045Z,9.30
2018-05-03T11:40:07.686Z,9.10
2018-05-03T11:42:36.607Z,8.60
2018-05-03T11:45:04.072Z,7.50
2018-05-03T11:47:31.591Z,7.33
2018-05-03T11:49:59.130Z,7.33
2018-05-03T11:52:27.391Z,9.40
2018-05-03T11:54:54.897Z,7.90
2018-05-03T11:57:22.408Z,7.37
2018-05-03T11:59:50.868Z,7.40
2018-05-03T12:02:18.388Z,5.60
2018-05-03T12:04:45.923Z,7.03
2018-05-03T12:07:13.911Z,6.13
2018-05-03T12:09:41.443Z,34.80
2018-05-03T12:12:09.107Z,7.20
2018-05-03T12:14:36.627Z,6.30
2018-05-03T12:17:04.171Z,8.13
2018-05-03T12:19:31.890Z,6.40
2018-05-03T12:21:59.395Z,7.47
2018-05-03T12:24:27.004Z,9.70
2018-05-03T12:26:55.507Z,10.50
2018-05-03T12:29:23.043Z,7.60
2018-05-03T12:31:50.791Z,6.70
2018-05-03T12:34:18.337Z,6.73
2018-05-03T12:36:45.864Z,6.70
2018-05-03T12:39:13.386Z,8.97
2018-05-03T12:41:40.902Z,10.20
2018-05-03T12:44:08.420Z,7.40
2018-05-03T12:46:35.925Z,7.13
2018-05-03T12:49:04.263Z,6.87
2018-05-03T12:51:31.787Z,6.33
2018-05-03T12:53:59.307Z,6.30
2018-05-03T12:56:26.903Z,6.03
2018-05-03T12:58:54.585Z,5.47
2018-05-03T13:01:22.883Z,5.47
2018-05-03T13:03:50.635Z,6.23
2018-05-03T13:06:18.167Z,4.67
2018-05-03T13:08:46.457Z,4.73
2018-05-03T13:11:14.041Z,6.20
2018-05-03T13:13:41.842Z,5.00
2018-05-03T13:16:09.395Z,5.77
2018-05-03T13:18:36.987Z,5.60
2018-05-03T13:21:04.647Z,5.40
2018-05-03T13:23:32.936Z,6.50
2018-05-03T13:26:00.686Z,5.13
2018-05-03T13:28:29.023Z,5.03
2018-05-03T13:30:56.774Z,4.53
2018-05-03T13:33:24.305Z,6.67
2018-05-03T13:35:51.858Z,7.17
2018-05-03T13:38:19.510Z,5.00
2018-05-03T13:40:47.473Z,9.00
2018-05-03T13:43:16.173Z,5.50
2018-05-03T13:45:43.749Z,4.97
2018-05-03T13:48:11.300Z,6.23
2018-05-03T13:50:39.203Z,6.40
2018-05-03T13:53:06.718Z,8.87
2018-05-03T13:55:34.261Z,6.37
2018-05-03T13:58:01.804Z,5.77
2018-05-03T14:00:29.331Z,5.90
2018-05-03T14:02:56.879Z,5.87
2018-05-03T14:05:24.540Z,6.30
2018-05-03T14:07:52.084Z,6.10
2018-05-03T14:10:19.639Z,6.00
2018-05-03T14:12:47.166Z,6.23
2018-05-03T14:15:15.102Z,11.90
2018-05-03T14:17:42.873Z,11.23
2018-05-03T14:20:11.435Z,6.53
2018-05-03T14:22:39.002Z,5.03
2018-05-03T14:25:06.663Z,4.50
2018-05-03T14:27:34.230Z,6.83
2018-05-03T14:30:01.891Z,5.90
2018-05-03T14:32:29.552Z,4.40
2018-05-03T14:34:57.964Z,4.10
2018-05-03T14:37:25.845Z,5.07
2018-05-03T14:39:53.887Z,5.10
2018-05-03T14:42:21.439Z,5.70
2018-05-03T14:44:49.035Z,5.10
2018-05-03T14:47:16.724Z,8.17
2018-05-03T14:49:44.229Z,5.73
2018-05-03T14:52:11.784Z,4.80
2018-05-03T14:54:39.489Z,6.30
2018-05-03T14:57:09.673Z,4.87
2018-05-03T14:59:37.258Z,5.87
2018-05-03T15:02:04.777Z,5.40
2018-05-03T15:04:32.323Z,5.50
2018-05-03T15:07:00.114Z,4.80
2018-05-03T15:09:27.681Z,4.40
2018-05-03T15:11:55.268Z,5.17
2018-05-03T15:14:22.854Z,7.10
2018-05-03T15:16:50.657Z,4.13
2018-05-03T15:19:18.265Z,4.80
2018-05-03T15:21:45.805Z,5.73
2018-05-03T15:24:13.402Z,5.77
2018-05-03T15:26:40.873Z,5.30
2018-05-03T15:29:08.490Z,5.63
2018-05-03T15:31:36.040Z,4.93
2018-05-03T15:34:04.383Z,5.20
2018-05-03T15:36:31.892Z,5.00
2018-05-03T15:38:59.481Z,5.90
2018-05-03T15:41:26.970Z,6.87
2018-05-03T15:43:54.531Z,8.07
2018-05-03T15:46:22.296Z,4.80
2018-05-03T15:48:49.835Z,5.50
2018-05-03T15:51:18.131Z,4.80
2018-05-03T15:53:46.490Z,6.07
2018-05-03T15:56:14.048Z,4.60
2018-05-03T15:58:43.260Z,5.10
2018-05-03T16:01:10.769Z,5.93
2018-05-03T16:03:38.529Z,6.40
2018-05-03T16:06:06.021Z,5.37
2018-05-03T16:08:33.551Z,4.20
2018-05-03T16:11:01.925Z,4.00
2018-05-03T16:13:29.480Z,2.90
2018-05-03T16:15:56.988Z,3.17
2018-05-03T16:18:25.280Z,4.57
2018-05-03T16:20:52.782Z,3.30
2018-05-03T16:23:20.338Z,3.80
2018-05-03T16:25:47.923Z,4.70
2018-05-03T16:28:16.582Z,5.83
2018-05-03T16:30:44.326Z,4.63
2018-05-03T16:33:12.030Z,4.20
2018-05-03T16:35:39.656Z,2.97
2018-05-03T16:38:07.383Z,3.00
2018-05-03T16:40:35.504Z,3.60
2018-05-03T16:43:04.552Z,4.50
2018-05-03T16:45:32.053Z,2.97
2018-05-03T16:47:59.631Z,5.27
2018-05-03T16:50:28.067Z,3.40
2018-05-03T16:52:55.650Z,4.83
2018-05-03T16:55:23.158Z,3.67
2018-05-03T16:57:51.591Z,3.20
2018-05-03T17:00:19.115Z,4.20
2018-05-03T17:02:46.642Z,3.70
2018-05-03T17:05:14.145Z,3.00
2018-05-03T17:07:41.732Z,4.60
2018-05-03T17:10:10.196Z,4.53
2018-05-03T17:12:37.827Z,2.83
2018-05-03T17:15:06.231Z,2.90
2018-05-03T17:17:33.738Z,3.00
2018-05-03T17:20:01.521Z,4.37
2018-05-03T17:22:30.376Z,2.63
2018-05-03T17:24:57.983Z,2.33
2018-05-03T17:27:25.511Z,3.30
2018-05-03T17:29:53.336Z,3.40
2018-05-03T17:32:20.920Z,5.07
2018-05-03T17:34:48.454Z,3.40
2018-05-03T17:37:15.970Z,5.20
2018-05-03T17:39:44.134Z,4.10
2018-05-03T17:42:11.677Z,3.53
2018-05-03T17:44:39.878Z,3.00
2018-05-03T17:47:07.443Z,12.43
2018-05-03T17:49:35.086Z,4.60
2018-05-03T17:52:02.592Z,4.83
2018-05-03T17:54:30.114Z,2.10
2018-05-03T17:56:57.700Z,4.57
2018-05-03T17:59:25.213Z,2.73
2018-05-03T18:01:52.725Z,2.10
2018-05-03T18:04:20.251Z,2.23
2018-05-03T18:06:47.864Z,2.10
2018-05-03T18:09:15.392Z,2.77
2018-05-03T18:11:42.963Z,3.43
2018-05-03T18:14:10.747Z,2.70
2018-05-03T18:16:38.340Z,2.80
2018-05-03T18:19:05.888Z,2.80
2018-05-03T18:21:33.519Z,2.20
2018-05-03T18:24:01.273Z,2.60
2018-05-03T18:26:28.855Z,2.23
2018-05-03T18:28:56.373Z,2.17
2018-05-03T18:31:24.754Z,2.30
2018-05-03T18:33:52.881Z,11.47
2018-05-03T18:36:20.506Z,3.53
2018-05-03T18:38:48.225Z,2.20
2018-05-03T18:41:15.800Z,2.70
2018-05-03T18:43:43.430Z,2.53
2018-05-03T18:46:11.000Z,2.50
2018-05-03T18:48:38.536Z,2.40
2018-05-03T18:51:06.137Z,2.80
2018-05-03T18:53:33.718Z,2.70
2018-05-03T18:56:01.239Z,3.00
2018-05-03T18:58:28.814Z,2.50
2018-05-03T19:00:56.471Z,1.90
2018-05-03T19:03:24.942Z,1.77
2018-05-03T19:05:52.497Z,3.40
2018-05-03T19:08:20.063Z,2.27
2018-05-03T19:10:48.829Z,2.10
2018-05-03T19:13:16.536Z,2.60
2018-05-03T19:15:44.895Z,2.17
2018-05-03T19:18:13.110Z,2.40
2018-05-03T19:20:42.256Z,2.20
2018-05-03T19:23:10.286Z,3.07
2018-05-03T19:25:38.587Z,2.43
2018-05-03T19:28:06.120Z,2.10
2018-05-03T19:30:34.444Z,2.43
2018-05-03T19:33:01.991Z,2.10
2018-05-03T19:35:29.658Z,1.97
2018-05-03T19:37:58.032Z,4.33
2018-05-03T19:40:25.703Z,2.60
2018-05-03T19:42:53.280Z,1.83
2018-05-03T19:45:20.864Z,1.70
2018-05-03T19:47:49.526Z,2.80
2018-05-03T19:50:17.123Z,2.67
2018-05-03T19:52:44.978Z,2.27
2018-05-03T19:55:12.693Z,2.07
2018-05-03T19:57:40.377Z,2.17
2018-05-03T20:00:08.019Z,2.27
2018-05-03T20:02:35.858Z,2.90
2018-05-03T20:05:03.433Z,2.60
2018-05-03T20:07:30.981Z,3.30
2018-05-03T20:10:00.201Z,2.40
2018-05-03T20:12:28.612Z,3.03
2018-05-03T20:14:56.350Z,2.90
2018-05-03T20:17:23.920Z,2.47
2018-05-03T20:19:51.480Z,2.90
2018-05-03T20:22:19.042Z,3.20
2018-05-03T20:24:46.664Z,2.90
2018-05-03T20:27:15.062Z,2.23
2018-05-03T20:29:42.581Z,2.47
2018-05-03T20:32:11.336Z,3.27
2018-05-03T20:34:38.958Z,2.23
2018-05-03T20:37:06.756Z,2.47
2018-05-03T20:39:34.368Z,5.27
2018-05-03T20:42:02.872Z,3.27
2018-05-03T20:44:31.504Z,2.40
2018-05-03T20:46:59.084Z,2.40
2018-05-03T20:49:26.610Z,2.93
2018-05-03T20:51:54.138Z,2.33
2018-05-03T20:54:21.914Z,2.50
2018-05-03T20:56:49.466Z,2.43
2018-05-03T20:59:17.001Z,4.63
2018-05-03T21:01:44.700Z,4.13
2018-05-03T21:04:12.260Z,2.27
2018-05-03T21:06:39.755Z,3.10
2018-05-03T21:09:07.961Z,2.50
2018-05-03T21:11:35.789Z,2.37
2018-05-03T21:14:03.352Z,2.57
2018-05-03T21:16:30.925Z,2.00
2018-05-03T21:18:58.554Z,6.63
2018-05-03T21:21:26.428Z,2.70
2018-05-03T21:23:53.968Z,2.97
2018-05-03T21:26:21.528Z,2.10
2018-05-03T21:28:49.779Z,2.70
2018-05-03T21:31:18.338Z,2.30
2018-05-03T21:33:45.982Z,1.90
2018-05-03T21:36:13.504Z,2.70
2018-05-03T21:38:41.078Z,2.70
2018-05-03T21:41:08.708Z,3.40
2018-05-03T21:43:36.253Z,2.67
2018-05-03T21:46:04.536Z,2.07
2018-05-03T21:48:32.916Z,2.20
2018-05-03T21:51:00.436Z,3.13
2018-05-03T21:53:27.924Z,2.20
2018-05-03T21:55:56.200Z,2.17
2018-05-03T21:58:24.202Z,3.20
2018-05-03T22:00:51.707Z,2.10
2018-05-03T22:03:19.225Z,2.43
2018-05-03T22:05:47.110Z,2.50
2018-05-03T22:08:14.670Z,3.53
2018-05-03T22:10:42.379Z,2.37
2018-05-03T22:13:09.914Z,2.57
2018-05-03T22:15:37.449Z,1.97
2018-05-03T22:18:04.973Z,2.30
2018-05-03T22:20:33.103Z,2.20
2018-05-03T22:23:00.633Z,2.30
2018-05-03T22:25:28.149Z,2.10
2018-05-03T22:27:56.450Z,2.17
2018-05-03T22:30:23.996Z,2.53
2018-05-03T22:32:52.058Z,2.47
2018-05-03T22:35:19.565Z,2.57
2018-05-03T22:37:47.074Z,2.20
2018-05-03T22:40:14.982Z,2.30
2018-05-03T22:42:42.510Z,1.97
2018-05-03T22:45:10.793Z,2.10
2018-05-03T22:47:39.056Z,2.17
2018-05-03T22:50:06.597Z,2.00
2018-05-03T22:52:34.179Z,2.50
2018-05-03T22:55:02.605Z,2.13
2018-05-03T22:57:30.171Z,2.70
2018-05-03T22:59:57.684Z,2.60
2018-05-03T23:02:25.994Z,2.87
2018-05-03T23:04:53.552Z,2.33
2018-05-03T23:07:21.093Z,2.30
2018-05-03T23:09:48.756Z,3.10
2018-05-03T23:12:16.513Z,4.00
2018-05-03T23:14:44.814Z,2.80
2018-05-03T23:17:12.467Z,3.20
2018-05-03T23:19:40.039Z,2.57
2018-05-03T23:22:08.189Z,2.60
2018-05-03T23:24:35.999Z,2.73
2018-05-03T23:27:03.543Z,3.53
2018-05-03T23:29:31.113Z,3.03
2018-05-03T23:31:58.727Z,2.40
2018-05-03T23:34:27.021Z,2.90
2018-05-03T23:36:54.541Z,4.70
2018-05-03T23:39:22.111Z,3.07
2018-05-03T23:41:49.721Z,3.00
2018-05-03T23:44:17.311Z,4.80
2018-05-03T23:46:45.544Z,3.00
2018-05-03T23:49:13.041Z,2.40
2018-05-03T23:51:41.154Z,2.60
2018-05-03T23:54:10.050Z,2.77
2018-05-03T23:56:37.564Z,2.53
2018-05-03T23:59:05.079Z,2.67
